Time;durP1;ratioP1;P1;durP2;ratioP2;P2;SDS_P1;SDS_P2;PMS_P1;PMS_P2;Temp;Humidity;BMP_temperature;BMP_pressure;BME280_temperature;BME280_humidity;BME280_pressure;Samples;Min_cycle;Max_cycle;Signal;HPM_P1;HPM_P2
2021/09/19 00:00:14;;;;;;;11.78;8.28;;;;;;;13.27;100.00;100284.05;2849170;83;21016;-64
2021/09/19 00:04:17;;;;;;;16.12;10.63;;;;;;;13.27;100.00;100280.86;2849015;83;21036;-63
2021/09/19 00:08:19;;;;;;;11.50;8.08;;;;;;;13.25;100.00;100276.64;2848975;83;20973;-62
2021/09/19 00:12:21;;;;;;;8.73;7.37;;;;;;;13.22;100.00;100283.61;2849223;83;20957;-62
2021/09/19 00:16:30;;;;;;;16.90;9.45;;;;;;;13.19;100.00;100280.75;2849211;83;20969;-63
2021/09/19 00:20:33;;;;;;;9.73;7.67;;;;;;;13.17;100.00;100278.72;2848751;83;21004;-63
2021/09/19 00:24:36;;;;;;;14.78;8.48;;;;;;;13.11;99.52;100277.45;2848752;83;21020;-63
2021/09/19 00:28:38;;;;;;;11.38;8.13;;;;;;;13.10;99.44;100278.92;2849269;83;20973;-65
2021/09/19 00:32:40;;;;;;;11.55;8.85;;;;;;;13.05;99.41;100275.84;2848915;83;21014;-65
2021/09/19 00:36:42;;;;;;;12.82;8.95;;;;;;;13.03;99.41;100277.81;2847443;82;21015;-67
2021/09/19 00:40:45;;;;;;;13.65;8.08;;;;;;;13.02;99.58;100274.29;2871186;83;20997;-66
2021/09/19 00:44:57;;;;;;;12.70;8.65;;;;;;;12.99;99.72;100268.77;2874684;83;21021;-66
2021/09/19 00:48:59;;;;;;;11.40;8.70;;;;;;;13.00;99.20;100270.92;2865177;82;21049;-67
2021/09/19 00:53:01;;;;;;;10.35;8.88;;;;;;;12.95;99.36;100269.17;2862316;83;21038;-66
2021/09/19 00:57:05;;;;;;;10.25;7.95;;;;;;;12.95;99.06;100271.34;2862375;83;21024;-66
2021/09/19 01:01:08;;;;;;;7.53;6.53;;;;;;;12.93;99.06;100269.30;2809153;84;21021;-66
2021/09/19 01:05:17;;;;;;;10.25;7.70;;;;;;;12.91;98.89;100267.78;2808356;85;20977;-65
2021/09/19 01:09:20;;;;;;;9.78;7.40;;;;;;;12.89;98.76;100267.91;2808391;85;20970;-65
2021/09/19 01:13:24;;;;;;;8.78;7.30;;;;;;;12.87;98.42;100268.55;2808163;85;21064;-66
2021/09/19 01:17:26;;;;;;;9.93;7.65;;;;;;;12.83;98.12;100273.82;2807778;85;21031;-66
2021/09/19 01:21:29;;;;;;;11.48;7.37;;;;;;;12.82;98.28;100268.14;2808191;85;21025;-65
2021/09/19 01:25:33;;;;;;;11.88;8.05;;;;;;;12.81;98.10;100269.95;2808336;85;20993;-65
2021/09/19 01:29:35;;;;;;;8.93;7.60;;;;;;;12.80;98.24;100268.77;2808352;85;21002;-65
2021/09/19 01:33:37;;;;;;;10.78;8.15;;;;;;;12.82;98.32;100274.30;2795989;84;21108;-66
2021/09/19 01:37:47;;;;;;;9.45;8.45;;;;;;;12.81;98.13;100270.45;2775447;86;20986;-65
2021/09/19 01:41:50;;;;;;;12.65;8.38;;;;;;;12.81;97.96;100272.62;2775565;86;21009;-65
2021/09/19 01:46:05;;;;;;;29.05;9.30;;;;;;;12.76;97.74;100263.34;2775642;86;21006;-65
2021/09/19 01:50:27;;;;;;;8.98;7.00;;;;;;;12.69;97.45;100259.91;2808523;84;21084;-66
2021/09/19 01:54:29;;;;;;;10.18;8.15;;;;;;;12.66;97.34;100254.00;2812380;84;21094;-65
2021/09/19 01:58:31;;;;;;;10.38;8.15;;;;;;;12.60;97.39;100260.77;2812599;84;20992;-66
2021/09/19 02:02:36;;;;;;;9.40;7.58;;;;;;;12.59;96.90;100262.22;2817165;84;21005;-66
2021/09/19 02:06:38;;;;;;;11.50;7.47;;;;;;;12.50;96.78;100266.56;2833193;83;21012;-64
2021/09/19 02:10:47;;;;;;;9.63;6.62;;;;;;;12.47;96.57;100258.84;2832670;84;21688;-65
2021/09/19 02:14:49;;;;;;;15.65;8.25;;;;;;;12.43;97.23;100258.27;2832613;84;20954;-66
2021/09/19 02:18:51;;;;;;;12.70;7.92;;;;;;;12.42;97.30;100253.92;2832841;84;21017;-65
2021/09/19 02:22:53;;;;;;;8.90;7.53;;;;;;;12.44;97.17;100251.95;2832632;84;21052;-65
2021/09/19 02:27:10;;;;;;;7.17;6.22;;;;;;;12.49;97.83;100251.55;2833031;83;20985;-65
2021/09/19 02:31:12;;;;;;;8.30;6.58;;;;;;;12.54;97.29;100245.29;2832939;84;20997;-65
2021/09/19 02:35:25;;;;;;;9.50;7.20;;;;;;;12.55;97.01;100249.16;2832825;84;20938;-64
2021/09/19 02:39:27;;;;;;;9.75;7.22;;;;;;;12.52;96.50;100245.92;2832835;83;21025;-65
2021/09/19 02:43:29;;;;;;;13.70;9.20;;;;;;;12.51;96.87;100240.23;2832665;84;21013;-64
2021/09/19 02:47:32;;;;;;;10.63;7.72;;;;;;;12.52;97.19;100246.78;2832941;83;21072;-65
2021/09/19 02:51:34;;;;;;;8.35;5.60;;;;;;;12.50;97.12;100243.89;2832867;84;20977;-64
2021/09/19 02:55:36;;;;;;;8.45;7.45;;;;;;;12.49;96.95;100241.73;2832760;84;20977;-65
2021/09/19 02:59:38;;;;;;;8.90;7.65;;;;;;;12.48;96.92;100243.19;2832830;84;21025;-65
2021/09/19 03:03:40;;;;;;;9.73;6.75;;;;;;;12.45;96.41;100242.14;2820135;83;21051;-64
2021/09/19 03:07:42;;;;;;;11.22;7.67;;;;;;;12.43;96.60;100244.45;2792993;85;20948;-65
2021/09/19 03:11:50;;;;;;;14.20;7.97;;;;;;;12.42;96.74;100248.11;2792822;85;21034;-65
2021/09/19 03:15:52;;;;;;;8.38;6.60;;;;;;;12.41;96.14;100251.76;2793004;85;21012;-64
2021/09/19 03:19:54;;;;;;;7.87;6.47;;;;;;;12.36;95.89;100248.64;2793116;85;20967;-65
2021/09/19 03:23:55;;;;;;;7.22;5.85;;;;;;;12.34;95.68;100251.94;2792958;85;21007;-65
2021/09/19 03:27:58;;;;;;;11.35;6.67;;;;;;;12.32;95.71;100257.91;2793136;85;20999;-64
2021/09/19 03:32:00;;;;;;;10.78;6.60;;;;;;;12.22;95.26;100251.73;2792761;85;21058;-64
2021/09/19 03:36:02;;;;;;;11.85;7.83;;;;;;;12.15;95.26;100254.09;2792769;85;21023;-64
2021/09/19 03:40:08;;;;;;;13.22;6.30;;;;;;;12.17;95.78;100247.27;2792912;85;21011;-64
2021/09/19 03:44:10;;;;;;;7.58;5.97;;;;;;;12.16;94.86;100254.92;2831293;83;21009;-64
2021/09/19 03:48:13;;;;;;;10.32;7.40;;;;;;;12.11;94.97;100265.52;2833233;83;20954;-65
2021/09/19 03:52:15;;;;;;;8.53;6.70;;;;;;;12.05;95.19;100261.21;2832939;84;20970;-64
2021/09/19 03:56:24;;;;;;;10.10;7.05;;;;;;;12.04;95.45;100275.05;2832474;84;20997;-64
2021/09/19 04:00:25;;;;;;;7.53;6.78;;;;;;;12.07;95.91;100265.91;2832695;84;21060;-64
2021/09/19 04:04:27;;;;;;;7.28;6.08;;;;;;;12.08;95.63;100276.45;2832813;84;21032;-64
2021/09/19 04:08:29;;;;;;;9.58;6.47;;;;;;;12.01;95.98;100272.66;2832830;84;20969;-64
2021/09/19 04:12:31;;;;;;;8.73;6.62;;;;;;;11.90;95.96;100280.23;2832816;83;21036;-64
2021/09/19 04:16:32;;;;;;;11.33;6.90;;;;;;;11.92;96.14;100272.09;2832594;84;20986;-64
2021/09/19 04:20:35;;;;;;;10.58;8.20;;;;;;;11.86;95.89;100267.66;2833056;83;20954;-63
2021/09/19 04:24:47;;;;;;;10.43;5.67;;;;;;;11.86;95.93;100266.33;2833131;84;21057;-64
2021/09/19 04:28:52;;;;;;;9.93;6.97;;;;;;;11.93;95.97;100277.77;2833045;84;21048;-65
2021/09/19 04:32:53;;;;;;;11.15;7.78;;;;;;;11.96;96.08;100277.50;2833038;84;20997;-64
2021/09/19 04:36:55;;;;;;;9.73;7.05;;;;;;;11.97;96.28;100276.52;2833016;83;21024;-65
2021/09/19 04:40:57;;;;;;;8.43;6.25;;;;;;;11.94;96.04;100283.45;2832710;84;21009;-64
2021/09/19 04:44:59;;;;;;;11.33;8.00;;;;;;;11.97;95.85;100277.84;2832876;84;21000;-65
2021/09/19 04:49:00;;;;;;;8.03;6.72;;;;;;;12.01;96.90;100271.33;2809004;84;21469;-65
2021/09/19 04:53:02;;;;;;;7.37;6.67;;;;;;;11.95;96.46;100278.00;2775542;85;20987;-65
2021/09/19 04:57:05;;;;;;;9.45;5.83;;;;;;;11.83;96.82;100281.26;2775709;86;21002;-65
2021/09/19 05:01:08;;;;;;;8.83;6.08;;;;;;;11.81;97.07;100292.55;2775930;86;21386;-65
2021/09/19 05:05:11;;;;;;;9.33;7.45;;;;;;;11.92;97.93;100294.75;2775857;86;21054;-65
2021/09/19 05:09:13;;;;;;;11.53;6.45;;;;;;;12.02;97.16;100292.14;2775774;85;20940;-65
2021/09/19 05:13:15;;;;;;;15.48;8.40;;;;;;;12.05;96.94;100293.20;2775859;85;21073;-65
2021/09/19 05:17:17;;;;;;;10.40;6.90;;;;;;;12.17;97.00;100296.61;2775599;85;21042;-65
2021/09/19 05:21:21;;;;;;;9.43;8.25;;;;;;;12.23;96.05;100284.08;2775555;86;21029;-65
2021/09/19 05:25:23;;;;;;;13.15;6.60;;;;;;;12.18;96.14;100290.29;2775479;86;21038;-65
2021/09/19 05:29:26;;;;;;;9.58;5.58;;;;;;;12.21;96.87;100294.87;2775552;86;21014;-65
2021/09/19 05:33:28;;;;;;;8.28;7.15;;;;;;;12.26;95.98;100295.80;2775638;86;20998;-65
2021/09/19 05:37:30;;;;;;;10.78;8.15;;;;;;;12.31;95.81;100300.23;2775439;86;21019;-65
2021/09/19 05:41:39;;;;;;;11.05;7.58;;;;;;;12.41;96.58;100305.11;2775407;85;20979;-65
2021/09/19 05:45:41;;;;;;;8.28;6.80;;;;;;;12.51;94.62;100298.45;2775546;86;21014;-65
2021/09/19 05:49:43;;;;;;;8.93;6.28;;;;;;;12.59;95.35;100300.91;2791499;84;21025;-65
2021/09/19 05:53:49;;;;;;;9.05;7.50;;;;;;;12.65;95.19;100299.88;2832717;84;21001;-65
2021/09/19 05:57:51;;;;;;;7.92;6.20;;;;;;;12.78;94.28;100306.78;2832808;84;20956;-65
2021/09/19 06:01:53;;;;;;;13.53;7.58;;;;;;;12.84;93.71;100316.38;2832565;84;21076;-65
2021/09/19 06:06:33;;;;;;;9.85;7.45;;;;;;;12.91;93.90;100310.50;2828289;83;21044;-65
2021/09/19 06:10:35;;;;;;;10.28;6.22;;;;;;;12.96;93.14;100311.73;2830984;84;20954;-64
2021/09/19 06:14:37;;;;;;;7.92;5.90;;;;;;;13.01;93.13;100312.66;2832582;84;21026;-65
2021/09/19 06:18:58;;;;;;;13.20;6.83;;;;;;;13.01;91.69;100315.33;2832424;84;21017;-65
2021/09/19 06:23:00;;;;;;;11.00;7.90;;;;;;;12.98;91.69;100307.12;2832681;84;20993;-65
2021/09/19 06:27:03;;;;;;;10.15;6.50;;;;;;;12.98;91.87;100310.27;2832576;84;21000;-63
2021/09/19 06:31:16;;;;;;;7.95;7.15;;;;;;;12.97;91.14;100310.78;2832884;84;20954;-65
2021/09/19 06:35:18;;;;;;;9.35;7.47;;;;;;;12.95;91.44;100307.89;2832437;84;21008;-63
2021/09/19 06:39:20;;;;;;;8.40;6.87;;;;;;;12.96;91.77;100309.58;2832533;84;20969;-62
2021/09/19 06:43:29;;;;;;;8.83;7.08;;;;;;;12.98;91.31;100315.14;2832106;84;20977;-62
2021/09/19 06:47:32;;;;;;;7.22;6.28;;;;;;;13.04;91.24;100312.88;2832602;84;20985;-62
2021/09/19 06:51:37;;;;;;;11.50;6.92;;;;;;;13.07;91.24;100311.25;2832833;83;20993;-61
2021/09/19 06:55:38;;;;;;;12.73;8.07;;;;;;;13.12;90.72;100307.19;2832576;83;21096;-62
2021/09/19 06:59:41;;;;;;;8.70;6.35;;;;;;;13.15;90.79;100311.37;2832516;84;21060;-62
2021/09/19 07:03:46;;;;;;;9.83;7.45;;;;;;;13.16;90.10;100311.73;2832620;84;21033;-62
2021/09/19 07:07:48;;;;;;;7.35;6.30;;;;;;;13.13;89.74;100306.67;2832647;84;20993;-62
2021/09/19 07:12:01;;;;;;;10.90;7.65;;;;;;;13.16;90.20;100309.05;2832449;84;21009;-63
2021/09/19 07:16:04;;;;;;;15.58;7.87;;;;;;;13.23;90.20;100319.54;2832812;84;20954;-62
2021/09/19 07:20:18;;;;;;;8.50;7.00;;;;;;;13.29;89.72;100315.46;2831905;84;20966;-62
2021/09/19 07:24:20;;;;;;;7.28;6.58;;;;;;;13.33;89.93;100314.66;2859402;83;21010;-63
2021/09/19 07:28:23;;;;;;;7.70;6.25;;;;;;;13.40;89.36;100309.11;2859307;83;20980;-62
2021/09/19 07:32:26;;;;;;;11.55;7.05;;;;;;;13.43;89.29;100306.19;2859493;83;21030;-62
2021/09/19 07:36:34;;;;;;;7.20;5.58;;;;;;;13.56;89.80;100297.37;2860868;83;21048;-63
2021/09/19 07:40:37;;;;;;;8.93;6.60;;;;;;;13.65;89.38;100296.95;2835827;83;21020;-62
2021/09/19 07:44:41;;;;;;;12.63;8.43;;;;;;;13.60;87.93;100311.77;2857296;82;21007;-62
2021/09/19 07:48:43;;;;;;;12.35;8.38;;;;;;;13.69;89.01;100322.91;2866346;83;21044;-63
2021/09/19 07:52:46;;;;;;;13.13;9.23;;;;;;;13.96;89.29;100323.97;2837805;83;20978;-62
2021/09/19 07:56:48;;;;;;;8.43;6.72;;;;;;;14.23;88.21;100332.47;2787892;85;21009;-62
2021/09/19 08:00:50;;;;;;;8.73;6.58;;;;;;;14.41;87.09;100329.86;2746173;86;21029;-63
2021/09/19 08:05:01;;;;;;;12.70;7.37;;;;;;;14.52;86.22;100329.28;2770832;86;21067;-63
2021/09/19 08:09:03;;;;;;;11.40;8.03;;;;;;;14.59;85.45;100327.70;2766581;86;20988;-63
2021/09/19 08:13:16;;;;;;;12.28;8.25;;;;;;;14.61;85.61;100329.73;2849325;83;20981;-62
2021/09/19 08:17:19;;;;;;;10.93;8.13;;;;;;;14.76;85.71;100327.91;2849066;83;30504;-62
2021/09/19 08:21:21;;;;;;;9.50;7.03;;;;;;;14.77;85.02;100332.27;2825908;84;21078;-62
2021/09/19 08:25:25;;;;;;;11.33;7.53;;;;;;;14.78;85.19;100330.77;2823341;83;20965;-62
2021/09/19 08:29:27;;;;;;;11.85;8.13;;;;;;;14.79;84.58;100331.62;2849395;83;21036;-62
2021/09/19 08:33:28;;;;;;;9.28;7.97;;;;;;;14.76;84.32;100334.61;2849515;83;20984;-62
2021/09/19 08:37:41;;;;;;;10.58;8.63;;;;;;;14.83;84.84;100337.84;2849280;83;21249;-62
2021/09/19 08:41:42;;;;;;;10.35;9.30;;;;;;;14.84;84.21;100336.02;2849443;83;20993;-62
2021/09/19 08:45:50;;;;;;;12.98;7.67;;;;;;;15.00;84.22;100343.35;2849529;83;20973;-62
2021/09/19 08:49:52;;;;;;;12.25;7.60;;;;;;;15.13;82.46;100340.28;2850618;83;21017;-62
2021/09/19 08:53:53;;;;;;;12.35;9.28;;;;;;;15.30;82.76;100344.44;2870080;83;20989;-62
2021/09/19 08:57:56;;;;;;;13.50;10.45;;;;;;;15.50;82.76;100340.56;2879662;82;21032;-62
2021/09/19 09:02:26;;;;;;;10.85;8.90;;;;;;;15.68;82.31;100337.86;2877347;82;21063;-62
2021/09/19 09:06:27;;;;;;;10.00;7.20;;;;;;;15.83;81.03;100334.08;2870109;82;21040;-62
2021/09/19 09:15:10;;;;;;;8.35;7.45;;;;;;;16.02;79.04;100337.56;2863594;83;21099;-62
2021/09/19 09:19:12;;;;;;;10.03;7.85;;;;;;;16.03;78.36;100333.88;2870547;83;20957;-62
2021/09/19 09:23:32;;;;;;;9.45;7.28;;;;;;;16.07;77.77;100325.84;2870131;82;21063;-62
2021/09/19 09:27:50;;;;;;;12.13;8.15;;;;;;;16.21;77.69;100316.84;2873286;82;21008;-62
2021/09/19 09:31:53;;;;;;;10.90;7.62;;;;;;;16.31;77.28;100322.94;2888516;82;21052;-61
2021/09/19 09:35:54;;;;;;;6.67;5.50;;;;;;;16.26;77.80;100327.92;2891349;82;21059;-62
2021/09/19 09:40:28;;;;;;;10.50;6.67;;;;;;;16.36;75.11;100328.65;2891459;82;21043;-62
2021/09/19 09:44:34;;;;;;;9.25;6.40;;;;;;;16.53;75.05;100321.47;2890944;82;20989;-62
2021/09/19 09:48:48;;;;;;;9.65;6.28;;;;;;;16.64;74.32;100320.84;2877418;82;20988;-62
2021/09/19 09:52:53;;;;;;;7.03;5.03;;;;;;;16.79;74.24;100315.13;2884970;82;21017;-62
2021/09/19 09:56:55;;;;;;;8.20;5.75;;;;;;;16.88;71.84;100313.81;2866643;82;21028;-62
2021/09/19 10:01:04;;;;;;;8.28;6.37;;;;;;;16.88;72.20;100313.30;2883107;82;20950;-62
2021/09/19 10:05:11;;;;;;;6.85;5.65;;;;;;;16.96;73.15;100320.03;2883131;82;21040;-62
2021/09/19 10:09:14;;;;;;;8.73;6.35;;;;;;;17.02;73.53;100321.74;2882889;82;21049;-62
2021/09/19 10:13:19;;;;;;;6.60;5.75;;;;;;;17.02;72.25;100320.39;2882926;82;21005;-62
2021/09/19 10:17:23;;;;;;;6.33;5.08;;;;;;;17.09;73.02;100320.05;2883044;82;21009;-62
2021/09/19 10:21:34;;;;;;;7.08;5.05;;;;;;;17.14;71.75;100319.06;2883111;82;21048;-63
2021/09/19 10:25:56;;;;;;;6.80;3.95;;;;;;;17.22;70.73;100316.36;2866471;82;21511;-62
2021/09/19 10:30:11;;;;;;;5.00;3.98;;;;;;;17.30;70.38;100321.42;2883004;82;21357;-62
2021/09/19 10:34:30;;;;;;;5.08;3.60;;;;;;;17.23;69.79;100314.01;2883006;80;21021;-63
2021/09/19 10:38:40;;;;;;;6.78;4.47;;;;;;;17.25;69.58;100312.51;2903649;81;20991;-62
2021/09/19 10:42:48;;;;;;;5.83;2.80;;;;;;;17.27;70.21;100311.83;2916779;81;21174;-62
2021/09/19 10:46:51;;;;;;;12.53;4.72;;;;;;;17.28;68.55;100321.05;2871269;81;20993;-61
2021/09/19 10:51:08;;;;;;;5.50;3.60;;;;;;;17.30;67.56;100320.08;2850331;81;21404;-65
2021/09/19 10:55:38;;;;;;;7.70;4.10;;;;;;;17.26;67.38;100322.25;2790056;85;21049;-65
2021/09/19 11:00:17;;;;;;;7.90;4.12;;;;;;;17.25;67.80;100316.02;2788151;85;21073;-65
2021/09/19 11:04:19;;;;;;;6.05;4.08;;;;;;;17.23;67.22;100304.59;2790008;85;20997;-65
2021/09/19 11:08:26;;;;;;;5.80;4.45;;;;;;;17.45;68.18;100302.73;2806545;83;21278;-65
2021/09/19 11:12:33;;;;;;;10.50;4.28;;;;;;;17.61;69.38;100311.27;2839793;84;21028;-65
2021/09/19 11:16:37;;;;;;;8.03;3.77;;;;;;;17.68;68.50;100307.73;2837173;84;21020;-65
2021/09/19 11:21:09;;;;;;;5.17;3.85;;;;;;;17.82;67.29;100305.34;2837671;84;21660;-65
2021/09/19 11:25:14;;;;;;;7.83;4.15;;;;;;;17.83;65.54;100306.50;2749365;86;21075;-65
2021/09/19 11:29:24;;;;;;;4.40;3.60;;;;;;;17.85;66.16;100305.81;2805266;84;20999;-65
2021/09/19 11:33:28;;;;;;;7.78;4.22;;;;;;;17.98;66.02;100299.05;2816757;84;21023;-65
2021/09/19 11:37:30;;;;;;;6.33;4.97;;;;;;;17.94;66.13;100297.73;2817356;84;21019;-65
2021/09/19 11:41:34;;;;;;;6.78;5.08;;;;;;;17.88;66.83;100301.95;2817540;84;21050;-65
2021/09/19 11:45:38;;;;;;;7.47;4.50;;;;;;;17.69;67.22;100305.37;2817225;83;21030;-65
2021/09/19 11:49:40;;;;;;;6.47;4.00;;;;;;;17.40;68.10;100303.24;2817140;84;21027;-65
2021/09/19 11:54:08;;;;;;;6.78;4.05;;;;;;;17.14;68.90;100298.91;2815485;84;21047;-65
2021/09/19 11:58:20;;;;;;;6.05;3.58;;;;;;;16.99;67.17;100298.23;2830251;83;21012;-65
2021/09/19 12:02:26;;;;;;;9.88;5.15;;;;;;;16.95;67.85;100301.38;2857718;83;20981;-65
2021/09/19 12:06:52;;;;;;;4.78;4.10;;;;;;;16.88;68.07;100303.06;2834481;82;21566;-65
2021/09/19 12:10:54;;;;;;;;;;;;;;;16.85;67.93;100293.48;2884973;82;20961;-65
2021/09/19 12:14:56;;;;;;;6.35;4.12;;;;;;;16.90;67.52;100299.22;2907466;82;20095;-64
2021/09/19 12:19:03;;;;;;;5.37;4.25;;;;;;;16.96;67.46;100293.66;2907944;82;20982;-65
2021/09/19 12:23:18;;;;;;;7.92;4.90;;;;;;;17.05;68.80;100298.56;2908030;82;21014;-65
2021/09/19 12:27:24;;;;;;;6.60;3.62;;;;;;;17.07;67.72;100293.85;2907166;82;20991;-65
2021/09/19 12:31:47;;;;;;;6.70;4.87;;;;;;;17.08;67.53;100298.22;2907563;82;21073;-64
2021/09/19 12:35:56;;;;;;;5.10;4.20;;;;;;;17.08;67.42;100296.88;2907588;80;21015;-65
2021/09/19 12:40:09;;;;;;;5.45;4.55;;;;;;;17.13;67.33;100297.23;2907835;82;20974;-65
2021/09/19 12:44:27;;;;;;;7.25;4.90;;;;;;;17.23;67.30;100294.37;2908082;81;21022;-65
2021/09/19 12:48:31;;;;;;;7.37;5.05;;;;;;;17.35;67.58;100297.55;2907225;82;20939;-64
2021/09/19 12:52:56;;;;;;;6.37;4.50;;;;;;;17.43;67.03;100296.17;2907776;81;21000;-65
2021/09/19 12:56:58;;;;;;;4.90;3.50;;;;;;;17.44;67.01;100289.78;2908306;82;21038;-65
2021/09/19 13:01:00;;;;;;;8.70;4.45;;;;;;;17.48;67.36;100290.30;2907481;82;21026;-65
2021/09/19 13:05:43;;;;;;;6.83;4.70;;;;;;;17.43;66.97;100284.08;2891170;82;21065;-65
2021/09/19 13:09:46;;;;;;;8.93;4.85;;;;;;;17.34;67.02;100284.59;2783581;85;20978;-65
2021/09/19 13:13:48;;;;;;;4.85;4.37;;;;;;;17.22;68.19;100281.42;2783269;84;21010;-65
2021/09/19 13:17:54;;;;;;;7.85;4.90;;;;;;;17.17;68.10;100282.44;2783440;85;21041;-65
2021/09/19 13:21:57;;;;;;;5.40;4.70;;;;;;;17.18;67.73;100280.09;2782644;85;21009;-65
2021/09/19 13:25:59;;;;;;;5.72;4.78;;;;;;;17.24;67.66;100280.74;2783249;85;21140;-64
2021/09/19 13:30:01;;;;;;;16.70;5.10;;;;;;;17.22;68.26;100277.91;2783463;85;21068;-65
2021/09/19 13:34:15;;;;;;;8.60;4.25;;;;;;;17.18;69.08;100278.74;2783018;85;21021;-65
2021/09/19 13:38:17;;;;;;;7.80;5.15;;;;;;;17.13;68.39;100279.77;2783583;85;20990;-65
2021/09/19 13:42:21;;;;;;;5.58;4.85;;;;;;;17.14;68.83;100278.75;2783467;85;20989;-65
2021/09/19 13:46:22;;;;;;;5.75;4.30;;;;;;;17.11;69.32;100281.27;2817132;82;20928;-65
2021/09/19 13:50:25;;;;;;;6.35;4.33;;;;;;;17.11;68.97;100279.09;2907869;82;20975;-64
2021/09/19 13:54:28;;;;;;;6.42;4.45;;;;;;;17.09;68.13;100273.88;2906732;81;20947;-65
2021/09/19 13:58:36;;;;;;;4.75;4.10;;;;;;;17.07;68.24;100278.58;2908183;82;20987;-64
2021/09/19 14:02:38;;;;;;;6.72;4.58;;;;;;;17.08;68.15;100277.58;2907946;81;20994;-65
2021/09/19 14:06:40;;;;;;;6.72;4.67;;;;;;;17.15;67.88;100275.55;2907864;82;21010;-65
2021/09/19 14:10:54;;;;;;;5.15;4.22;;;;;;;17.11;68.56;100279.09;2908074;82;20963;-65
2021/09/19 14:14:56;;;;;;;5.70;4.50;;;;;;;17.06;68.34;100282.77;2907953;82;20940;-65
2021/09/19 14:18:58;;;;;;;7.62;4.37;;;;;;;16.97;68.78;100273.84;2907836;80;21062;-65
2021/09/19 14:23:00;;;;;;;5.87;3.85;;;;;;;16.90;69.51;100271.01;2907971;82;20991;-65
2021/09/19 14:27:02;;;;;;;15.75;4.87;;;;;;;16.76;69.25;100268.98;2907945;82;20944;-65
2021/09/19 14:31:04;;;;;;;9.48;4.90;;;;;;;16.68;69.91;100271.98;2907848;80;21042;-64
2021/09/19 14:35:07;;;;;;;4.55;3.83;;;;;;;16.62;70.44;100265.94;2907961;82;20967;-65
2021/09/19 14:39:09;;;;;;;7.62;4.87;;;;;;;16.55;70.19;100263.59;2887849;81;21037;-64
2021/09/19 14:43:38;;;;;;;7.55;5.37;;;;;;;16.50;69.69;100260.54;2854960;83;21032;-64
2021/09/19 14:47:41;;;;;;;5.15;4.40;;;;;;;16.49;70.89;100266.43;2856069;82;20961;-65
2021/09/19 14:51:52;;;;;;;7.37;4.53;;;;;;;16.51;70.50;100267.09;2855737;83;21314;-64
2021/09/19 14:55:53;;;;;;;7.12;4.47;;;;;;;16.50;69.89;100265.91;2841045;83;21053;-65
2021/09/19 14:59:59;;;;;;;8.20;5.35;;;;;;;16.51;70.72;100267.09;2881231;82;20981;-65
2021/09/19 15:04:01;;;;;;;;;;;;;;;16.50;71.35;100271.28;2879881;82;21008;-64
2021/09/19 15:08:05;;;;;;;5.20;4.40;;;;;;;16.41;70.41;100268.59;2876998;82;20091;-65
2021/09/19 15:12:07;;;;;;;8.68;6.15;;;;;;;16.36;70.74;100268.25;2877230;82;21044;-64
2021/09/19 15:16:16;;;;;;;5.75;4.90;;;;;;;16.32;71.42;100278.98;2873482;82;20965;-64
2021/09/19 15:20:17;;;;;;;7.97;4.60;;;;;;;16.28;71.09;100273.58;2856435;83;21016;-65
2021/09/19 15:24:25;;;;;;;8.58;6.08;;;;;;;16.27;71.09;100280.81;2854029;83;21346;-65
2021/09/19 15:28:34;;;;;;;7.78;4.97;;;;;;;16.24;71.42;100288.34;2856662;83;21056;-65
2021/09/19 15:32:39;;;;;;;7.10;4.80;;;;;;;16.27;71.93;100271.91;2855612;82;21031;-64
2021/09/19 15:36:41;;;;;;;6.28;4.40;;;;;;;16.27;71.97;100271.91;2855830;83;21023;-64
2021/09/19 15:41:27;;;;;;;4.70;3.75;;;;;;;16.22;71.30;100275.10;2856384;83;21294;-65
2021/09/19 15:44:46;;;;;;;5.45;4.37;;;;;;;16.17;70.94;100266.67;2831302;81;21079;-64
2021/09/19 15:48:51;;;;;;;6.53;4.85;;;;;;;16.10;70.55;100269.68;2856097;83;21010;-64
2021/09/19 15:52:54;;;;;;;8.50;5.97;;;;;;;16.06;71.91;100266.99;2854798;83;21035;-64
2021/09/19 15:56:56;;;;;;;7.42;5.15;;;;;;;16.05;72.29;100270.16;2847840;83;21097;-64
2021/09/19 16:01:04;;;;;;;7.40;5.62;;;;;;;16.03;70.91;100270.83;2847815;83;20959;-64
2021/09/19 16:05:06;;;;;;;5.62;4.22;;;;;;;15.97;70.49;100273.65;2846157;83;20987;-64
2021/09/19 16:09:08;;;;;;;6.20;3.90;;;;;;;15.93;71.81;100264.77;2847524;82;21058;-64
2021/09/19 16:13:10;;;;;;;5.95;4.40;;;;;;;15.90;71.39;100265.06;2848233;83;21026;-63
2021/09/19 16:17:12;;;;;;;6.67;5.42;;;;;;;15.88;72.38;100271.06;2847620;81;21311;-63
2021/09/19 16:21:17;;;;;;;6.33;5.00;;;;;;;15.87;72.79;100269.38;2847376;81;21046;-64
2021/09/19 16:25:36;;;;;;;8.05;4.55;;;;;;;15.81;72.97;100263.67;2847942;83;20971;-64
2021/09/19 16:29:40;;;;;;;4.75;4.17;;;;;;;15.79;72.11;100265.67;2847346;83;21070;-64
2021/09/19 16:33:42;;;;;;;4.87;4.40;;;;;;;15.75;72.54;100268.34;2846665;82;21117;-64
2021/09/19 16:37:52;;;;;;;7.22;5.25;;;;;;;15.74;73.21;100265.33;2847082;83;21007;-64
2021/09/19 16:41:54;;;;;;;6.72;4.90;;;;;;;15.68;73.42;100269.97;2847432;82;21018;-63
2021/09/19 16:45:56;;;;;;;8.15;5.47;;;;;;;15.65;73.88;100263.09;2846939;83;21011;-63
2021/09/19 16:50:09;;;;;;;7.70;5.22;;;;;;;15.65;74.20;100260.91;2847933;82;20967;-64
2021/09/19 16:54:12;;;;;;;5.90;5.28;;;;;;;15.66;74.65;100259.42;2850130;82;21005;-64
2021/09/19 16:58:15;;;;;;;5.75;4.92;;;;;;;15.63;75.05;100266.93;2855723;83;21000;-65
2021/09/19 17:02:24;;;;;;;7.20;5.58;;;;;;;15.62;74.74;100266.08;2856140;83;20988;-65
2021/09/19 17:06:26;;;;;;;7.05;5.75;;;;;;;15.52;74.77;100264.84;2860207;83;21012;-64
2021/09/19 17:10:34;;;;;;;7.72;5.85;;;;;;;15.53;74.91;100269.23;2886084;81;20973;-63
2021/09/19 17:14:36;;;;;;;10.85;6.30;;;;;;;15.53;74.96;100269.23;2855768;83;21023;-64
2021/09/19 17:18:40;;;;;;;8.80;5.95;;;;;;;15.53;74.82;100269.23;2856299;83;21004;-63
2021/09/19 17:22:42;;;;;;;6.55;5.37;;;;;;;15.49;75.13;100264.34;2856245;83;21399;-64
2021/09/19 17:26:44;;;;;;;8.95;6.50;;;;;;;15.50;75.26;100275.41;2856380;82;21004;-65
2021/09/19 17:30:47;;;;;;;8.75;5.75;;;;;;;15.49;74.87;100273.73;2856833;83;21071;-64
2021/09/19 17:34:50;;;;;;;12.82;6.42;;;;;;;15.47;75.08;100275.73;2856237;83;21542;-65
2021/09/19 17:38:52;;;;;;;9.08;6.20;;;;;;;15.48;75.52;100276.89;2855823;83;21079;-64
2021/09/19 18:08:19;;;;;;;9.83;7.05;;;;;;;15.33;76.26;100308.80;2963365;78;21059;-58
2021/09/19 18:12:21;;;;;;;8.03;7.10;;;;;;;15.25;76.49;100301.53;2920184;81;21008;-56
2021/09/19 18:16:24;;;;;;;11.00;6.45;;;;;;;15.25;76.86;100302.05;3006386;78;20928;-56
2021/09/19 18:20:27;;;;;;;8.78;5.70;;;;;;;15.22;76.76;100308.55;3006191;79;21007;-57
2021/09/19 18:24:29;;;;;;;9.98;6.53;;;;;;;15.18;76.95;100309.86;3006445;79;21233;-56
2021/09/19 18:28:39;;;;;;;10.55;6.28;;;;;;;15.15;77.09;100307.50;3006213;79;20983;-56
2021/09/19 18:32:39;;;;;;;6.87;5.45;;;;;;;15.11;77.12;100311.47;2975053;79;21010;-58
2021/09/19 18:36:41;;;;;;;12.82;8.23;;;;;;;15.06;77.41;100308.42;3005840;79;21022;-57
2021/09/19 18:40:50;;;;;;;9.43;5.90;;;;;;;15.03;77.73;100311.41;3006502;79;20963;-56
2021/09/19 18:44:52;;;;;;;10.63;7.25;;;;;;;14.99;77.35;100320.24;3006484;79;20927;-57
2021/09/19 18:48:54;;;;;;;15.68;6.83;;;;;;;14.92;77.21;100321.86;3006157;79;20979;-56
2021/09/19 18:53:00;;;;;;;12.85;7.75;;;;;;;14.88;77.80;100317.30;2961093;79;20916;-56
2021/09/19 18:57:03;;;;;;;8.13;5.78;;;;;;;14.88;78.00;100315.96;2950704;80;20971;-56
2021/09/19 19:01:05;;;;;;;9.95;5.08;;;;;;;14.88;78.06;100325.33;2950558;80;20948;-61
2021/09/19 19:05:46;;;;;;;6.33;5.62;;;;;;;14.92;77.80;100325.88;2950098;80;21062;-60
2021/09/19 19:09:48;;;;;;;7.37;6.20;;;;;;;14.91;77.50;100330.38;3005812;79;20987;-56
2021/09/19 19:13:51;;;;;;;8.13;5.72;;;;;;;14.88;77.57;100330.69;3017090;79;21299;-57
2021/09/19 19:17:55;;;;;;;11.08;7.15;;;;;;;14.84;77.69;100333.34;3017097;79;20987;-56
2021/09/19 19:21:57;;;;;;;8.98;7.45;;;;;;;14.66;76.66;100328.78;3016934;79;21000;-56
2021/09/19 19:26:00;;;;;;;8.08;6.15;;;;;;;14.46;77.05;100332.58;3016778;79;21222;-57